createdAt,value
2023-02-20T00:00:42.744Z,51.40
2023-02-20T00:03:18.555Z,52.22
2023-02-20T00:05:45.136Z,51.09
2023-02-20T00:08:11.878Z,50.86
2023-02-20T00:10:38.527Z,51.69
2023-02-20T00:13:14.157Z,51.28
2023-02-20T00:16:04.596Z,51.77
2023-02-20T00:18:56.418Z,50.83
2023-02-20T00:21:23.203Z,50.89
2023-02-20T00:23:49.869Z,50.79
2023-02-20T00:26:16.486Z,50.31
2023-02-20T00:28:44.412Z,50.75
2023-02-20T00:31:17.166Z,50.46
2023-02-20T00:33:44.003Z,51.19
2023-02-20T00:36:20.399Z,51.71
2023-02-20T00:38:47.346Z,52.12
2023-02-20T00:41:15.605Z,52.16
2023-02-20T00:43:42.702Z,52.28
2023-02-20T00:46:13.658Z,52.31
2023-02-20T00:48:40.652Z,52.83
2023-02-20T00:51:07.230Z,52.51
2023-02-20T00:53:33.901Z,52.93
2023-02-20T00:56:00.509Z,53.97
2023-02-20T00:58:27.058Z,53.74
2023-02-20T01:00:53.716Z,54.13
2023-02-20T01:06:40.047Z,53.97
2023-02-20T01:09:09.698Z,54.67
2023-02-20T01:11:36.287Z,54.34
2023-02-20T01:14:03.148Z,54.97
2023-02-20T01:16:29.751Z,54.78
2023-02-20T01:18:56.581Z,54.79
2023-02-20T01:21:23.142Z,54.48
2023-02-20T01:23:49.731Z,54.53
2023-02-20T01:26:16.420Z,53.91
2023-02-20T01:28:49.425Z,54.62
2023-02-20T01:31:15.966Z,54.53
2023-02-20T01:34:06.126Z,54.48
2023-02-20T01:53:51.442Z,60.62
2023-02-20T01:56:18.073Z,60.99
2023-02-20T01:58:48.237Z,61.07
2023-02-20T02:01:14.986Z,61.66
2023-02-20T02:04:07.139Z,62.21
2023-02-20T02:06:50.297Z,63.06
2023-02-20T02:09:33.409Z,63.15
2023-02-20T02:12:00.311Z,63.27
2023-02-20T02:14:27.145Z,63.71
2023-02-20T02:17:17.074Z,63.48
2023-02-20T02:20:24.724Z,63.71
2023-02-20T02:23:28.725Z,63.93
2023-02-20T02:26:23.703Z,64.20
2023-02-20T02:29:14.776Z,63.56
2023-02-20T02:32:34.252Z,63.51
2023-02-20T02:35:56.315Z,64.33
2023-02-20T02:38:51.769Z,62.77
2023-02-20T02:41:50.935Z,63.20
2023-02-20T02:44:31.239Z,62.10
2023-02-20T02:47:06.125Z,62.10
2023-02-20T02:49:57.593Z,61.64
2023-02-20T02:55:12.642Z,60.78
2023-02-20T02:57:39.250Z,60.74
2023-02-20T03:00:16.679Z,61.20
2023-02-20T03:03:51.968Z,61.25
2023-02-20T03:06:47.161Z,60.95
2023-02-20T03:09:19.935Z,60.58
2023-02-20T03:11:47.304Z,60.77
2023-02-20T03:14:40.196Z,61.79
2023-02-20T03:17:30.545Z,62.31
2023-02-20T03:20:01.021Z,62.83
2023-02-20T03:22:49.008Z,63.74
2023-02-20T03:25:26.456Z,63.25
2023-02-20T03:28:06.620Z,62.95
2023-02-20T03:37:52.190Z,63.58
2023-02-20T03:40:39.609Z,64.32
2023-02-20T03:43:30.656Z,63.92
2023-02-20T03:46:12.006Z,64.20
2023-02-20T03:48:55.893Z,63.54
2023-02-20T03:51:23.557Z,63.62
2023-02-20T03:53:51.145Z,63.99
2023-02-20T03:56:43.112Z,64.31
2023-02-20T03:59:17.655Z,64.47
2023-02-20T04:05:22.617Z,64.67
2023-02-20T04:07:56.394Z,64.57
2023-02-20T04:10:28.929Z,64.56
2023-02-20T04:12:57.308Z,64.31
2023-02-20T04:15:25.623Z,64.25
2023-02-20T04:17:59.951Z,63.81
2023-02-20T04:20:33.104Z,64.57
2023-02-20T04:23:07.021Z,64.05
2023-02-20T04:26:06.120Z,64.46
2023-02-20T04:28:32.971Z,64.38
2023-02-20T04:31:23.821Z,65.04
2023-02-20T04:34:05.535Z,64.36
2023-02-20T04:36:36.920Z,64.67
2023-02-20T04:39:03.856Z,64.23
2023-02-20T04:41:30.470Z,64.41
2023-02-20T04:44:16.953Z,64.13
2023-02-20T04:46:43.683Z,64.35
2023-02-20T04:49:10.258Z,64.27
2023-02-20T04:51:36.820Z,64.55
2023-02-20T04:54:03.509Z,63.56
2023-02-20T04:56:30.119Z,63.50
2023-02-20T04:58:56.660Z,63.34
2023-02-20T05:01:48.152Z,62.80
2023-02-20T05:04:33.352Z,62.33
2023-02-20T05:07:00.026Z,62.06
2023-02-20T05:09:26.955Z,62.10
2023-02-20T05:11:54.137Z,61.96
2023-02-20T05:14:21.902Z,62.15
2023-02-20T05:16:49.196Z,61.88
2023-02-20T05:19:15.787Z,61.71
2023-02-20T05:22:02.730Z,61.92
2023-02-20T05:24:29.944Z,62.20
2023-02-20T05:26:56.919Z,62.68
2023-02-20T05:29:23.840Z,63.26
2023-02-20T05:31:50.579Z,62.95
2023-02-20T05:34:35.481Z,62.57
2023-02-20T05:37:02.043Z,62.92
2023-02-20T05:39:28.620Z,62.98
2023-02-20T05:41:55.190Z,63.19
2023-02-20T05:44:21.765Z,63.42
2023-02-20T05:47:02.041Z,61.83
2023-02-20T05:49:41.971Z,62.02
2023-02-20T05:52:12.469Z,60.96
2023-02-20T05:54:40.885Z,61.53
2023-02-20T05:57:08.132Z,61.11
2023-02-20T05:59:34.746Z,61.11
2023-02-20T06:02:01.735Z,60.56
2023-02-20T06:04:29.924Z,60.42
2023-02-20T06:06:56.573Z,60.05
2023-02-20T06:09:25.911Z,60.35
2023-02-20T06:11:55.253Z,59.86
2023-02-20T06:14:24.118Z,60.39
2023-02-20T06:16:50.758Z,60.20
2023-02-20T06:19:23.531Z,60.00
2023-02-20T06:21:53.575Z,59.59
2023-02-20T06:24:21.421Z,59.40
2023-02-20T06:26:48.670Z,59.07
2023-02-20T06:29:16.811Z,58.70
2023-02-20T06:31:43.824Z,58.44
2023-02-20T06:34:11.258Z,58.35
2023-02-20T06:36:39.829Z,58.09
2023-02-20T06:39:08.198Z,59.78
2023-02-20T06:41:34.758Z,60.20
2023-02-20T06:44:01.540Z,59.92
2023-02-20T06:46:28.240Z,59.28
2023-02-20T06:48:56.769Z,58.90
2023-02-20T06:51:28.356Z,59.12
2023-02-20T06:53:55.243Z,59.08
2023-02-20T06:56:25.271Z,59.88
2023-02-20T06:58:53.339Z,59.57
2023-02-20T07:01:22.513Z,58.79
2023-02-20T07:03:50.189Z,58.33
2023-02-20T07:06:17.802Z,58.06
2023-02-20T07:08:44.611Z,57.75
2023-02-20T07:11:12.256Z,58.16
2023-02-20T07:13:38.902Z,58.43
2023-02-20T07:16:06.407Z,57.97
2023-02-20T07:18:33.492Z,57.70
2023-02-20T07:21:00.116Z,56.17
2023-02-20T07:23:26.730Z,56.48
2023-02-20T07:25:53.729Z,55.71
2023-02-20T07:28:20.986Z,55.85
2023-02-20T07:30:49.261Z,56.59
2023-02-20T07:33:17.912Z,56.73
2023-02-20T07:35:45.569Z,55.88
2023-02-20T07:38:12.638Z,56.19
2023-02-20T07:40:40.193Z,56.00
2023-02-20T07:43:07.803Z,55.94
2023-02-20T07:45:34.524Z,56.03
2023-02-20T07:48:01.159Z,55.94
2023-02-20T07:50:27.790Z,55.12
2023-02-20T07:52:54.404Z,55.16
2023-02-20T07:55:21.160Z,56.86
2023-02-20T07:57:50.237Z,55.13
2023-02-20T08:00:18.843Z,55.56
2023-02-20T08:02:46.424Z,55.21
2023-02-20T08:05:13.805Z,55.53
2023-02-20T08:07:47.990Z,54.84
2023-02-20T08:10:17.001Z,54.75
2023-02-20T08:12:43.651Z,55.86
2023-02-20T08:15:12.287Z,53.46
2023-02-20T08:17:46.391Z,54.25
2023-02-20T08:20:17.793Z,54.34
2023-02-20T08:22:45.842Z,56.66
2023-02-20T08:25:12.899Z,58.83
2023-02-20T08:27:49.816Z,60.33
2023-02-20T08:30:24.874Z,62.50
2023-02-20T08:32:52.195Z,63.75
2023-02-20T08:35:19.003Z,63.39
2023-02-20T08:37:45.843Z,63.46
2023-02-20T08:40:13.445Z,62.90
2023-02-20T08:42:40.113Z,62.54
2023-02-20T08:45:09.093Z,62.72
2023-02-20T08:47:36.307Z,62.67
2023-02-20T08:50:03.621Z,62.59
2023-02-20T08:52:30.282Z,62.44
2023-02-20T08:54:56.856Z,62.30
2023-02-20T08:57:23.401Z,61.16
2023-02-20T08:59:50.534Z,61.18
2023-02-20T09:02:24.718Z,61.18
2023-02-20T09:04:51.501Z,60.35
2023-02-20T09:07:18.056Z,60.07
2023-02-20T09:09:48.187Z,59.72
2023-02-20T09:12:15.061Z,59.75
2023-02-20T09:14:41.738Z,58.70
2023-02-20T09:17:08.956Z,57.84
2023-02-20T09:19:35.670Z,57.87
2023-02-20T09:22:02.594Z,58.64
2023-02-20T09:24:34.054Z,56.68
2023-02-20T09:27:06.391Z,56.00
2023-02-20T09:29:33.059Z,55.22
2023-02-20T09:31:59.715Z,54.62
2023-02-20T09:37:02.016Z,52.79
2023-02-20T09:39:28.714Z,51.87
2023-02-20T09:42:10.301Z,52.23
2023-02-20T09:44:54.887Z,52.97
2023-02-20T09:47:59.712Z,51.61
2023-02-20T09:54:13.016Z,51.73
2023-02-20T09:56:43.112Z,53.24
2023-02-20T09:59:20.655Z,53.19
2023-02-20T10:01:58.304Z,54.51
2023-02-20T10:04:40.982Z,54.63
2023-02-20T10:07:28.852Z,54.64
2023-02-20T10:13:08.675Z,56.02
2023-02-20T10:15:43.523Z,56.32
2023-02-20T10:18:19.885Z,55.58
2023-02-20T10:21:24.413Z,56.57
2023-02-20T10:24:06.054Z,54.71
2023-02-20T10:26:37.519Z,56.82
2023-02-20T10:29:26.478Z,54.55
2023-02-20T10:31:56.225Z,54.80
2023-02-20T10:34:36.292Z,56.43
2023-02-20T10:37:15.833Z,56.18
2023-02-20T10:40:30.753Z,56.27
2023-02-20T10:43:16.630Z,56.71
2023-02-20T10:45:54.588Z,55.51
2023-02-20T10:48:26.526Z,58.00
2023-02-20T10:51:59.518Z,57.27
2023-02-20T10:54:35.474Z,55.94
2023-02-20T10:57:22.878Z,54.03
2023-02-20T11:00:02.695Z,53.38
2023-02-20T11:02:39.523Z,53.42
2023-02-20T11:05:11.298Z,52.26
2023-02-20T11:07:37.891Z,51.63
2023-02-20T11:19:01.674Z,51.64
2023-02-20T11:21:45.100Z,50.89
2023-02-20T11:27:55.857Z,51.49
2023-02-20T11:30:31.452Z,54.25
2023-02-20T11:33:17.323Z,53.21
2023-02-20T11:35:50.546Z,51.31
2023-02-20T11:38:17.260Z,49.28
2023-02-20T11:40:47.386Z,50.18
2023-02-20T11:43:25.579Z,49.02
2023-02-20T11:46:08.500Z,49.69
2023-02-20T11:48:35.386Z,49.73
2023-02-20T11:51:02.587Z,48.25
2023-02-20T11:53:38.398Z,47.31
2023-02-20T11:56:18.660Z,46.89
2023-02-20T11:58:48.700Z,48.79
2023-02-20T12:01:36.920Z,48.00
2023-02-20T12:04:20.182Z,47.78
2023-02-20T12:06:47.402Z,49.13
2023-02-20T12:09:24.425Z,50.85
2023-02-20T12:11:55.007Z,48.53
2023-02-20T12:14:21.788Z,50.19
2023-02-20T12:17:00.344Z,48.38
2023-02-20T12:20:03.318Z,48.79
2023-02-20T12:22:39.108Z,48.69
2023-02-20T12:25:09.459Z,46.43
2023-02-20T12:28:13.594Z,47.95
2023-02-20T12:31:14.511Z,47.08
2023-02-20T12:34:18.345Z,48.26
2023-02-20T12:37:03.615Z,48.48
2023-02-20T12:40:22.403Z,47.83
2023-02-20T12:43:26.301Z,48.69
2023-02-20T12:46:21.708Z,47.72
2023-02-20T12:48:54.446Z,47.61
2023-02-20T12:51:29.226Z,47.79
2023-02-20T12:53:55.708Z,47.50
2023-02-20T12:57:03.436Z,47.50
2023-02-20T12:59:58.260Z,48.05
2023-02-20T13:02:41.646Z,47.75
2023-02-20T13:05:15.126Z,47.89
2023-02-20T13:07:53.614Z,48.90
2023-02-20T13:10:27.022Z,48.36
2023-02-20T13:12:54.883Z,48.70
2023-02-20T13:15:33.629Z,47.19
2023-02-20T13:18:05.478Z,46.56
2023-02-20T13:20:45.545Z,46.91
2023-02-20T13:23:17.994Z,45.73
2023-02-20T13:25:48.956Z,46.45
2023-02-20T13:28:24.070Z,46.44
2023-02-20T13:31:12.917Z,46.13
2023-02-20T13:33:42.377Z,45.52
2023-02-20T13:36:28.860Z,44.29
2023-02-20T13:39:25.369Z,43.87
2023-02-20T13:41:54.723Z,43.14
2023-02-20T13:44:36.333Z,43.34
2023-02-20T13:47:22.247Z,42.42
2023-02-20T13:49:58.381Z,42.08
2023-02-20T13:52:43.252Z,43.21
2023-02-20T13:55:09.725Z,42.75
2023-02-20T13:57:54.698Z,42.11
2023-02-20T14:00:45.420Z,41.67
2023-02-20T14:03:18.014Z,44.37
2023-02-20T14:05:44.671Z,42.53
2023-02-20T14:08:19.277Z,42.83
2023-02-20T14:10:47.984Z,42.28
2023-02-20T14:13:34.170Z,42.51
2023-02-20T14:16:01.222Z,45.82
2023-02-20T14:18:30.968Z,46.84
2023-02-20T14:21:18.716Z,46.80
2023-02-20T14:23:50.427Z,46.66
2023-02-20T14:26:31.477Z,47.00
2023-02-20T14:29:00.099Z,47.28
2023-02-20T14:31:30.741Z,46.70
2023-02-20T14:34:00.930Z,47.99
2023-02-20T14:36:37.754Z,46.17
2023-02-20T14:39:07.121Z,46.35
2023-02-20T14:41:33.835Z,45.66
2023-02-20T14:44:02.923Z,46.91
2023-02-20T14:46:32.937Z,47.79
2023-02-20T14:49:16.388Z,47.47
2023-02-20T14:51:43.418Z,47.09
2023-02-20T14:54:21.936Z,47.49
2023-02-20T14:56:49.957Z,48.70
2023-02-20T14:59:28.045Z,47.98
2023-02-20T15:02:01.481Z,49.05
2023-02-20T15:04:28.884Z,49.75
2023-02-20T15:07:07.015Z,49.71
2023-02-20T15:09:44.608Z,49.67
2023-02-20T15:12:24.014Z,49.04
2023-02-20T15:15:03.247Z,49.86
2023-02-20T15:17:33.163Z,49.61
2023-02-20T15:20:01.439Z,50.48
2023-02-20T15:22:32.783Z,50.34
2023-02-20T15:25:28.751Z,50.54
2023-02-20T15:28:14.096Z,50.19
2023-02-20T15:31:08.568Z,51.12
2023-02-20T15:33:36.777Z,51.44
2023-02-20T15:36:05.579Z,51.83
2023-02-20T15:38:35.589Z,51.38
2023-02-20T15:41:04.197Z,51.51
2023-02-20T15:43:47.023Z,51.97
2023-02-20T15:46:16.901Z,51.95
2023-02-20T15:48:44.119Z,52.58
2023-02-20T15:51:12.064Z,51.73
2023-02-20T15:53:39.080Z,53.31
2023-02-20T15:56:06.237Z,53.11
2023-02-20T15:58:43.305Z,52.93
2023-02-20T16:01:10.776Z,52.75
2023-02-20T16:03:50.420Z,52.38
2023-02-20T16:06:19.718Z,52.90
2023-02-20T16:08:46.930Z,52.71
2023-02-20T16:11:14.535Z,52.98
2023-02-20T16:13:44.684Z,53.23
2023-02-20T16:16:25.273Z,52.90
2023-02-20T16:18:54.721Z,54.46
2023-02-20T16:21:23.947Z,54.21
2023-02-20T16:23:51.121Z,54.55
2023-02-20T16:26:20.412Z,54.98
2023-02-20T16:28:56.165Z,55.38
2023-02-20T16:31:33.136Z,55.79
2023-02-20T16:33:59.712Z,55.37
2023-02-20T16:36:27.729Z,55.16
2023-02-20T16:38:54.446Z,55.95
2023-02-20T16:41:21.076Z,56.83
2023-02-20T16:43:48.507Z,56.00
2023-02-20T16:46:17.057Z,55.99
2023-02-20T16:48:49.191Z,56.40
2023-02-20T16:51:19.951Z,56.73
2023-02-20T16:53:46.545Z,56.66
2023-02-20T16:56:13.980Z,57.94
2023-02-20T16:58:40.734Z,58.50
2023-02-20T17:01:07.338Z,57.95
2023-02-20T17:03:33.884Z,57.84
2023-02-20T17:06:00.431Z,57.95
2023-02-20T17:08:27.758Z,57.85
2023-02-20T17:10:54.411Z,57.05
2023-02-20T17:13:21.249Z,56.47
2023-02-20T17:15:48.014Z,57.03
2023-02-20T17:18:15.691Z,57.39
2023-02-20T17:20:42.551Z,57.74
2023-02-20T17:23:09.168Z,57.76
2023-02-20T17:25:35.942Z,58.18
2023-02-20T17:28:04.726Z,58.89
2023-02-20T17:30:31.352Z,59.49
2023-02-20T17:32:58.160Z,58.95
2023-02-20T17:35:24.728Z,59.46
2023-02-20T17:37:51.397Z,59.24
2023-02-20T17:40:18.384Z,59.13
2023-02-20T17:42:44.964Z,59.31
2023-02-20T17:45:11.949Z,60.00
2023-02-20T17:47:39.454Z,61.21
2023-02-20T17:50:06.908Z,61.54
2023-02-20T17:52:33.468Z,60.45
2023-02-20T17:55:00.125Z,60.82
2023-02-20T17:57:28.330Z,60.09
2023-02-20T17:59:55.111Z,59.44
2023-02-20T18:02:21.688Z,59.49
2023-02-20T18:04:48.246Z,59.08
2023-02-20T18:07:17.265Z,58.82
2023-02-20T18:09:44.032Z,58.94
2023-02-20T18:12:11.029Z,59.24
2023-02-20T18:14:37.604Z,59.10
2023-02-20T18:17:04.245Z,59.09
2023-02-20T18:19:30.869Z,58.96
2023-02-20T18:21:57.538Z,60.12
2023-02-20T18:24:25.396Z,61.00
2023-02-20T18:29:47.439Z,60.95
2023-02-20T18:32:14.301Z,61.00
2023-02-20T18:34:40.888Z,61.42
2023-02-20T18:37:07.535Z,62.24
2023-02-20T18:39:34.108Z,62.59
2023-02-20T18:42:00.673Z,62.17
2023-02-20T18:44:58.356Z,62.00
2023-02-20T18:47:43.207Z,62.38
2023-02-20T18:50:09.954Z,62.64
2023-02-20T18:52:36.487Z,62.34
2023-02-20T18:55:03.089Z,62.62
2023-02-20T18:57:29.622Z,62.55
2023-02-20T18:59:56.149Z,63.14
2023-02-20T19:02:22.772Z,63.71
2023-02-20T19:04:49.923Z,65.07
2023-02-20T19:07:16.973Z,64.36
2023-02-20T19:09:43.570Z,63.82
2023-02-20T19:12:11.881Z,63.65
2023-02-20T19:14:39.302Z,63.53
2023-02-20T19:17:07.549Z,63.32
2023-02-20T19:19:34.551Z,63.22
2023-02-20T19:22:01.274Z,63.49
2023-02-20T19:24:27.952Z,63.98
2023-02-20T19:26:54.535Z,63.92
2023-02-20T19:29:24.382Z,63.56
2023-02-20T19:31:50.997Z,64.02
2023-02-20T19:34:17.746Z,64.75
2023-02-20T19:36:44.385Z,64.51
2023-02-20T19:39:11.105Z,64.43
2023-02-20T19:41:39.428Z,64.21
2023-02-20T19:44:06.935Z,64.16
2023-02-20T19:46:33.683Z,65.72
2023-02-20T19:49:00.287Z,65.52
2023-02-20T19:51:26.900Z,65.67
2023-02-20T19:53:54.278Z,65.36
2023-02-20T19:56:20.882Z,65.63
2023-02-20T19:58:47.473Z,66.70
2023-02-20T20:01:16.779Z,65.87
2023-02-20T20:03:44.780Z,65.22
2023-02-20T20:06:13.504Z,65.24
2023-02-20T20:08:56.435Z,64.72
2023-02-20T20:11:27.049Z,64.10
2023-02-20T20:13:53.630Z,63.67
2023-02-20T20:16:20.496Z,63.33
2023-02-20T20:18:47.044Z,63.40
2023-02-20T20:21:13.753Z,63.27
2023-02-20T20:23:40.320Z,63.66
2023-02-20T20:26:06.861Z,63.73
2023-02-20T20:28:34.385Z,64.37
2023-02-20T20:31:00.952Z,64.18
2023-02-20T20:33:27.600Z,64.09
2023-02-20T20:35:54.173Z,63.88
2023-02-20T20:38:20.766Z,63.50
2023-02-20T20:40:47.418Z,63.30
2023-02-20T20:43:15.650Z,63.30
2023-02-20T20:45:42.971Z,63.22
2023-02-20T20:48:09.887Z,63.71
2023-02-20T20:50:36.463Z,63.45
2023-02-20T20:53:03.109Z,63.94
2023-02-20T20:55:29.865Z,63.61
2023-02-20T20:57:56.847Z,63.20
2023-02-20T21:00:26.212Z,63.26
2023-02-20T21:02:54.106Z,64.79
2023-02-20T21:05:23.434Z,64.64
2023-02-20T21:07:49.992Z,64.47
2023-02-20T21:10:17.149Z,64.77
2023-02-20T21:12:43.703Z,64.80
2023-02-20T21:15:12.141Z,64.55
2023-02-20T21:17:41.061Z,64.14
2023-02-20T21:20:11.897Z,64.02
2023-02-20T21:22:38.518Z,63.87
2023-02-20T21:25:05.997Z,64.19
2023-02-20T21:27:32.599Z,63.80
2023-02-20T21:29:59.211Z,64.90
2023-02-20T21:32:26.721Z,64.14
2023-02-20T21:34:53.393Z,63.63
2023-02-20T21:37:20.228Z,65.23
2023-02-20T21:39:46.814Z,64.75
2023-02-20T21:42:32.385Z,65.30
2023-02-20T21:44:58.941Z,65.76
2023-02-20T21:55:32.108Z,64.71
2023-02-20T21:57:59.035Z,64.53
2023-02-20T22:00:25.660Z,63.79
2023-02-20T22:07:10.506Z,64.86
2023-02-20T22:09:55.996Z,64.18
2023-02-20T22:12:41.606Z,64.17
2023-02-20T22:15:27.124Z,64.00
2023-02-20T22:18:11.987Z,64.03
2023-02-20T22:20:57.238Z,63.65
2023-02-20T22:23:42.425Z,62.95
2023-02-20T22:26:27.860Z,63.25
2023-02-20T22:29:13.297Z,63.28
2023-02-20T22:31:58.435Z,63.85
2023-02-20T22:34:44.140Z,63.81
2023-02-20T22:40:05.708Z,63.47
2023-02-20T22:42:51.231Z,64.54
2023-02-20T22:45:36.112Z,64.18
2023-02-20T22:48:21.554Z,64.57
2023-02-20T22:51:06.594Z,65.09
2023-02-20T22:54:29.568Z,65.25
2023-02-20T22:57:30.002Z,65.24
2023-02-20T23:00:16.437Z,65.92
2023-02-20T23:03:01.278Z,65.16
2023-02-20T23:05:46.834Z,65.56
2023-02-20T23:08:32.278Z,65.10
2023-02-20T23:11:17.298Z,67.19
2023-02-20T23:14:05.917Z,65.93
2023-02-20T23:16:50.847Z,65.89
2023-02-20T23:19:35.815Z,65.15
2023-02-20T23:22:21.101Z,65.15
2023-02-20T23:25:06.028Z,65.97
2023-02-20T23:27:56.218Z,66.36
2023-02-20T23:30:41.641Z,66.19
2023-02-20T23:33:27.007Z,66.72
2023-02-20T23:36:11.931Z,66.53
2023-02-20T23:39:14.395Z,65.96
2023-02-20T23:42:30.876Z,66.22
2023-02-20T23:45:16.223Z,65.24
2023-02-20T23:48:01.841Z,64.78
2023-02-20T23:50:47.096Z,64.40
2023-02-20T23:53:32.533Z,64.50
2023-02-20T23:56:17.597Z,64.61
2023-02-20T23:59:03.184Z,64.91
